Athol, MA

11:08 PM EST on February 26, 2015 (GMT -0500)
Fitchburg Municipal | Change Station
CLOSE
Current Station
Airport
Location: Fitchburg,
Elevation: 348 ft
Nearby Weather Stations

Elev 348 ft 42.55 °N, 71.76 °W | Updated 16 minutes ago

Overcast
Overcast
20 °F
Feels Like 15 °F
N
4
Wind Variable Wind from NNW

Today
High -- | Low -- °F
--% Chance of Precip.
Yesterday
High -- | Low -- °F
Precip. -- in
6:29 AM 5:34 PM
Waxing Gibbous, 65% visible
Pressure 30.12 in
Visibility 10.0 miles
Clouds Overcast 11000 ft
Windchill 15 °F
Dew Point 0 °F
Humidity 42%
Rainfall 0.00 in
Snow Depth Not available.
UV 0 out of 12
Pollen .40 out of 12
Air Quality Not available.
Flu Activity Not available.
METAR KFIT 270352Z AUTO 34003KT 10SM OVC110 M07/M18 A3009 RMK AO2 SLP198 T10671178

More Conditions Fewer Conditions

Pressure 30.12 in
Visibility 10.0 miles
Clouds Overcast 11000 ft
Windchill 15 °F
Dew Point 0 °F
Humidity 42%
Rainfall 0.00 in
Snow Depth Not available.
UV 0 out of 12
Pollen .40 out of 12
Air Quality Not available.
Flu Activity Not available.
METAR KFIT 270352Z AUTO 34003KT 10SM OVC110 M07/M18 A3009 RMK AO2 SLP198 T10671178

More Conditions Fewer Conditions

10-Day Weather Forecast

Almanac

Astronomy

Feb. 26, 2015 Rise Set
Actual Time
Civil Twilight
Nautical Twilight
Astronomical Twilight
Moon
Length of Visible Light
Length of Day
Tomorrow will be .
, % of the Moon is Illuminated

Today's Extremes

State Highs State Lows

Community

WunderPhotos

Upload Photos

1,800,609 photos uploaded!

WunderBlogs® & News

Nearby

Air Quality

  Air Quality AQ Index Pollutant
Not available.

Snow Depth

Station Depth Elevation

Earthquake Activity

City Distance Mag. Time & Date
Minimum magnitude displayed is 2.5.

Coastal Water Temperatures

Place Temperature

Nearby Weather Stations